Time;durP1;ratioP1;P1;durP2;ratioP2;P2;SDS_P1;SDS_P2;PMS_P1;PMS_P2;Temp;Humidity;BMP_temperature;BMP_pressure;BME280_temperature;BME280_humidity;BME280_pressure;Samples;Min_cycle;Max_cycle;Signal;HPM_P1;HPM_P2
2023/02/12 00:01:07;;;;;;;4.6;3.1;;;;;;;1.71;74.70215;954.6071;;;;
2023/02/12 00:03:37;;;;;;;5.2;2.9;;;;;;;1.86;74.08984;954.5835;;;;
2023/02/12 00:06:02;;;;;;;5;3.1;;;;;;;1.92;73.70898;954.5735;;;;
2023/02/12 00:08:29;;;;;;;4.9;3.1;;;;;;;1.95;73.34473;954.4772;;;;
2023/02/12 00:11:03;;;;;;;3.3;2.4;;;;;;;1.96;72.84375;954.4446;;;;
2023/02/12 00:13:30;;;;;;;3.7;2.4;;;;;;;2.1;72.57617;954.4303;;;;
2023/02/12 00:15:57;;;;;;;3;2.2;;;;;;;2.28;72.65234;954.4088;;;;
2023/02/12 00:18:22;;;;;;;3.9;2.7;;;;;;;2.37;72.78125;954.4828;;;;
2023/02/12 00:20:49;;;;;;;4.4;2.8;;;;;;;2.41;73.06543;954.6483;;;;
2023/02/12 00:23:20;;;;;;;4.2;3.1;;;;;;;2.41;73.24512;954.7166;;;;
2023/02/12 00:26:02;;;;;;;5.4;3.6;;;;;;;2.29;73.95313;954.7695;;;;
2023/02/12 00:28:36;;;;;;;6.4;3.9;;;;;;;2.15;74.34375;954.8831;;;;
2023/02/12 00:31:05;;;;;;;6.4;3.7;;;;;;;2.2;74.14941;954.8164;;;;
2023/02/12 00:33:41;;;;;;;5.6;3.7;;;;;;;2.23;73.7959;954.8496;;;;
2023/02/12 00:36:06;;;;;;;6.1;3.9;;;;;;;2.28;73.20117;954.8363;;;;
2023/02/12 00:38:32;;;;;;;7.1;4.2;;;;;;;2.35;72.70801;954.8197;;;;
2023/02/12 00:41:03;;;;;;;5.7;3.6;;;;;;;2.37;72.33105;954.823;;;;
2023/02/12 00:43:28;;;;;;;4.9;3.6;;;;;;;2.42;71.79199;954.8408;;;;
2023/02/12 00:45:59;;;;;;;5.5;3.6;;;;;;;2.44;71.68262;954.8594;;;;
2023/02/12 00:48:24;;;;;;;4.6;3;;;;;;;2.38;71.34766;954.9032;;;;
2023/02/12 00:50:51;;;;;;;5.9;3.3;;;;;;;2.53;71.46289;954.812;;;;
2023/02/12 00:53:16;;;;;;;4.1;2.9;;;;;;;2.58;71.26855;954.8654;;;;
2023/02/12 00:55:42;;;;;;;4.5;2.8;;;;;;;2.47;71.33984;954.7986;;;;
2023/02/12 00:58:11;;;;;;;4.5;3.1;;;;;;;2.25;72.28906;954.823;;;;
2023/02/12 01:00:47;;;;;;;4.8;3.3;;;;;;;2.09;73.2334;954.791;;;;
2023/02/12 01:03:12;;;;;;;5.1;3.5;;;;;;;1.98;73.78711;954.8425;;;;
2023/02/12 01:05:39;;;;;;;4.9;3.3;;;;;;;1.94;74.31641;954.9305;;;;
2023/02/12 01:08:04;;;;;;;5.1;3.6;;;;;;;2.13;74.08105;954.9744;;;;
2023/02/12 01:11:30;;;;;;;6;4.1;;;;;;;2.29;73.39258;954.9794;;;;
2023/02/12 01:16:26;;;;;;;5.5;4.4;;;;;;;2.51;72.26465;955.0012;;;;
2023/02/12 01:18:56;;;;;;;5.7;4.3;;;;;;;2.54;72.38281;954.9433;;;;
2023/02/12 01:27:18;;;;;;;5.7;3.6;;;;;;;2.46;72.72754;954.8514;;;;
2023/02/12 01:29:44;;;;;;;6;4.1;;;;;;;2.41;72.93164;954.8445;;;;
2023/02/12 01:32:13;;;;;;;5.6;3.6;;;;;;;2.43;72.74512;954.6808;;;;
2023/02/12 01:34:38;;;;;;;5.7;3.6;;;;;;;2.51;72.43262;954.6965;;;;
2023/02/12 01:37:16;;;;;;;6.4;4.3;;;;;;;2.56;72.38574;954.6691;;;;
2023/02/12 01:39:44;;;;;;;6.8;4.1;;;;;;;2.47;73.00977;954.6225;;;;
2023/02/12 01:42:09;;;;;;;6.6;4.2;;;;;;;2.43;72.87988;954.6189;;;;
2023/02/12 01:44:34;;;;;;;5.6;4;;;;;;;2.39;72.81641;954.6394;;;;
2023/02/12 01:46:59;;;;;;;6.6;4;;;;;;;2.33;73.05176;954.658;;;;
2023/02/12 01:49:24;;;;;;;6.6;4.2;;;;;;;2.4;72.76172;954.714;;;;
2023/02/12 01:51:50;;;;;;;5.5;3.6;;;;;;;2.43;72.71191;954.6848;;;;
2023/02/12 01:54:15;;;;;;;4.9;3.3;;;;;;;2.49;72.45215;954.7374;;;;
2023/02/12 01:56:41;;;;;;;5.6;3.7;;;;;;;2.41;72.70703;954.6747;;;;
2023/02/12 01:59:07;;;;;;;5.5;3.1;;;;;;;2.39;72.64648;954.7123;;;;
2023/02/12 02:01:37;;;;;;;3.7;3.1;;;;;;;2.37;72.62305;954.7428;;;;
2023/02/12 02:04:02;;;;;;;4;3.3;;;;;;;2.39;72.47852;954.6699;;;;
2023/02/12 02:06:46;;;;;;;4.2;3.3;;;;;;;2.39;72.49121;954.7001;;;;
2023/02/12 02:09:11;;;;;;;4.7;2.8;;;;;;;2.39;73.09473;954.6934;;;;
2023/02/12 02:16:26;;;;;;;6.6;3.4;;;;;;;2.48;74.05273;954.6722;;;;
2023/02/12 02:18:53;;;;;;;6.4;3.5;;;;;;;2.44;73.40625;954.7059;;;;
2023/02/12 02:21:22;;;;;;;4.9;3.4;;;;;;;2.44;73.22852;954.6843;;;;
2023/02/12 02:23:48;;;;;;;3.6;2.4;;;;;;;2.42;73.07813;954.6669;;;;
2023/02/12 02:26:13;;;;;;;3.6;3;;;;;;;2.34;73.02148;954.6355;;;;
2023/02/12 02:28:38;;;;;;;3.8;2.8;;;;;;;2.21;73.56934;954.5993;;;;
2023/02/12 02:31:03;;;;;;;4.1;3;;;;;;;2.22;73.69336;954.5839;;;;
2023/02/12 02:33:28;;;;;;;4.5;3.1;;;;;;;2.25;73.3418;954.6548;;;;
2023/02/12 02:35:56;;;;;;;5.4;3.2;;;;;;;2.27;73.1543;954.6014;;;;
2023/02/12 02:38:21;;;;;;;4.5;3.2;;;;;;;2.31;73.07129;954.5353;;;;
2023/02/12 02:40:46;;;;;;;5.1;2.9;;;;;;;2.36;72.89941;954.5955;;;;
2023/02/12 02:43:11;;;;;;;4.6;3.1;;;;;;;2.42;72.56348;954.5144;;;;
2023/02/12 02:45:36;;;;;;;5.1;2.9;;;;;;;2.4;72.55078;954.5622;;;;
2023/02/12 02:48:02;;;;;;;3.8;2.7;;;;;;;2.45;72.52441;954.5746;;;;
2023/02/12 02:50:27;;;;;;;4.4;2.5;;;;;;;2.48;72.20605;954.5781;;;;
2023/02/12 02:52:52;;;;;;;5.1;3.1;;;;;;;2.46;72.3916;954.4856;;;;
2023/02/12 02:55:17;;;;;;;3.4;2.5;;;;;;;2.29;72.55273;954.5826;;;;
2023/02/12 02:57:48;;;;;;;4.5;2.6;;;;;;;2.38;72.35547;954.535;;;;
2023/02/12 03:00:17;;;;;;;4.3;2.7;;;;;;;2.43;72.12891;954.6116;;;;
2023/02/12 03:02:45;;;;;;;5.1;2.9;;;;;;;2.48;72.1709;954.6046;;;;
2023/02/12 03:05:10;;;;;;;4.6;3;;;;;;;2.46;72.16797;954.6192;;;;
2023/02/12 03:07:35;;;;;;;5.1;3.1;;;;;;;2.47;72.19141;954.5356;;;;
2023/02/12 03:10:00;;;;;;;5.1;2.8;;;;;;;2.36;72.52051;954.5126;;;;
2023/02/12 03:12:26;;;;;;;4.9;2.7;;;;;;;2.28;72.65234;954.4796;;;;
2023/02/12 03:14:51;;;;;;;4.4;2.9;;;;;;;2.13;72.92969;954.4666;;;;
2023/02/12 03:17:16;;;;;;;3.4;2.4;;;;;;;2.16;72.7998;954.4363;;;;
2023/02/12 03:19:45;;;;;;;3.4;2.6;;;;;;;2.04;73.08008;954.4843;;;;
2023/02/12 03:22:10;;;;;;;5.4;2.6;;;;;;;1.95;73.32422;954.4481;;;;
2023/02/12 03:24:42;;;;;;;3.9;2.4;;;;;;;1.94;73.84863;954.4611;;;;
2023/02/12 03:27:07;;;;;;;4.6;3.2;;;;;;;1.83;75.57324;954.5416;;;;
2023/02/12 03:29:32;;;;;;;5.6;3.2;;;;;;;1.78;76.23438;954.5588;;;;
2023/02/12 03:32:02;;;;;;;5;3.2;;;;;;;1.79;75.73438;954.5388;;;;
2023/02/12 03:34:29;;;;;;;5.1;3;;;;;;;1.66;75.98047;954.5417;;;;
2023/02/12 03:36:54;;;;;;;3.9;2.4;;;;;;;1.57;75.95117;954.608;;;;
2023/02/12 03:39:21;;;;;;;4.1;2.6;;;;;;;1.5;75.91602;954.6501;;;;
2023/02/12 03:41:47;;;;;;;3.2;2.6;;;;;;;1.48;75.76855;954.7234;;;;
2023/02/12 03:44:16;;;;;;;4.1;2.4;;;;;;;1.46;75.40625;954.6535;;;;
2023/02/12 03:46:42;;;;;;;3.7;3.1;;;;;;;1.42;75.2998;954.7239;;;;
2023/02/12 03:49:08;;;;;;;4.5;3.2;;;;;;;1.43;75.16895;954.6769;;;;
2023/02/12 03:51:34;;;;;;;4.4;3;;;;;;;1.45;74.94531;954.7617;;;;
2023/02/12 03:53:58;;;;;;;4.1;2.5;;;;;;;1.3;75.74805;954.7263;;;;
2023/02/12 03:56:24;;;;;;;3;2.4;;;;;;;1.24;76.18359;954.8162;;;;
2023/02/12 03:58:49;;;;;;;3.2;2.4;;;;;;;1.27;75.96484;954.7922;;;;
2023/02/12 04:02:48;;;;;;;4.1;2.4;;;;;;;1.2;75.88672;954.8148;;;;
2023/02/12 04:05:16;;;;;;;4.7;2.7;;;;;;;1.21;75.83105;954.8109;;;;
2023/02/12 04:07:41;;;;;;;3.6;2.3;;;;;;;1.12;75.81641;954.8741;;;;
2023/02/12 04:10:15;;;;;;;4.6;2.6;;;;;;;1.17;75.41211;954.9405;;;;
2023/02/12 04:12:41;;;;;;;4.4;2.3;;;;;;;1.22;74.92773;955.0115;;;;
2023/02/12 04:15:14;;;;;;;4.8;3;;;;;;;1.27;74.80078;955.0759;;;;
2023/02/12 04:17:42;;;;;;;3.8;2.8;;;;;;;1.28;74.95117;955.1461;;;;
2023/02/12 04:20:12;;;;;;;4.7;2.7;;;;;;;1.27;75.67383;955.205;;;;
2023/02/12 04:22:41;;;;;;;4.1;3.2;;;;;;;1.21;76.44629;955.2748;;;;
2023/02/12 04:25:16;;;;;;;3.6;2.9;;;;;;;1.24;76.86328;955.3995;;;;
2023/02/12 04:27:41;;;;;;;5;3.2;;;;;;;1.28;76.82813;955.38;;;;
2023/02/12 04:30:06;;;;;;;3.9;2.8;;;;;;;1.32;76.73438;955.4403;;;;
2023/02/12 04:32:31;;;;;;;3;2.4;;;;;;;1.32;76.20801;955.4494;;;;
2023/02/12 04:34:57;;;;;;;3.9;2.9;;;;;;;1.27;76.28906;955.4529;;;;
2023/02/12 04:37:22;;;;;;;3.9;2.4;;;;;;;1.37;75.78125;955.4436;;;;
2023/02/12 04:39:48;;;;;;;3.5;2.6;;;;;;;1.34;76.02246;955.3969;;;;
2023/02/12 04:42:13;;;;;;;4;2.9;;;;;;;1.34;76.02246;955.3488;;;;
2023/02/12 04:44:38;;;;;;;4.4;2.9;;;;;;;1.22;76.25879;955.3937;;;;
2023/02/12 04:47:07;;;;;;;5.1;2.8;;;;;;;1.15;76.69336;955.394;;;;
2023/02/12 04:49:32;;;;;;;4.5;3.3;;;;;;;1.19;76.75586;955.3985;;;;
2023/02/12 04:51:57;;;;;;;4.9;3.2;;;;;;;1.21;76.66992;955.427;;;;
2023/02/12 04:54:23;;;;;;;5.1;3.5;;;;;;;1.25;76.5293;955.426;;;;
2023/02/12 04:56:50;;;;;;;4.2;3.3;;;;;;;1.18;76.71973;955.3833;;;;
2023/02/12 04:59:15;;;;;;;5.1;3.6;;;;;;;1.17;77.08594;955.4297;;;;
2023/02/12 05:01:45;;;;;;;5;3.3;;;;;;;1.32;76.63184;955.4776;;;;
2023/02/12 05:04:10;;;;;;;5.8;3.5;;;;;;;1.31;76.56543;955.4506;;;;
2023/02/12 05:06:36;;;;;;;6.2;4.2;;;;;;;1.31;76.68848;955.3481;;;;
2023/02/12 05:09:01;;;;;;;8.2;5.1;;;;;;;1.23;77.00879;955.4542;;;;
2023/02/12 05:11:32;;;;;;;8.1;5;;;;;;;1.19;77.08984;955.5023;;;;
2023/02/12 05:13:57;;;;;;;7;4.4;;;;;;;1.15;76.97168;955.3842;;;;
2023/02/12 05:16:25;;;;;;;5.1;3;;;;;;;1.1;76.61523;955.4841;;;;
2023/02/12 05:18:50;;;;;;;5.8;3.5;;;;;;;0.98;76.89551;955.3975;;;;
2023/02/12 05:21:18;;;;;;;7;3.8;;;;;;;0.89;77.42578;955.373;;;;
2023/02/12 05:24:08;;;;;;;7.3;4;;;;;;;0.71;78.5293;955.3844;;;;
2023/02/12 05:26:33;;;;;;;5.7;3.6;;;;;;;0.69;78.93848;955.375;;;;
2023/02/12 05:29:02;;;;;;;5.1;3.5;;;;;;;0.5;79.8418;955.3661;;;;
2023/02/12 05:31:27;;;;;;;4.4;3.3;;;;;;;0.56;79.78516;955.3472;;;;
2023/02/12 05:33:56;;;;;;;4.2;3.2;;;;;;;0.44;80.20898;955.3603;;;;
2023/02/12 05:40:02;;;;;;;5.1;2.7;;;;;;;0.35;80.86133;955.3464;;;;
2023/02/12 05:42:27;;;;;;;4.1;3;;;;;;;0.41;80.57031;955.3524;;;;
2023/02/12 05:44:58;;;;;;;4.1;3;;;;;;;0.53;80.05859;955.3276;;;;
2023/02/12 05:47:23;;;;;;;4.6;3.1;;;;;;;0.61;79.63965;955.3371;;;;
2023/02/12 05:49:50;;;;;;;4.3;3.1;;;;;;;0.61;79.4502;955.3271;;;;
2023/02/12 05:52:15;;;;;;;6;2.8;;;;;;;0.71;78.82324;955.3481;;;;
2023/02/12 05:54:47;;;;;;;4.9;2.9;;;;;;;0.6;79.4707;955.3508;;;;
2023/02/12 05:57:14;;;;;;;3.8;3.1;;;;;;;0.69;78.80664;955.413;;;;
2023/02/12 05:59:39;;;;;;;4.1;3.2;;;;;;;0.72;78.41016;955.4269;;;;
2023/02/12 06:02:04;;;;;;;3.8;3.1;;;;;;;0.68;78.44629;955.4081;;;;
2023/02/12 06:04:29;;;;;;;5.2;3.3;;;;;;;0.63;78.72754;955.4593;;;;
2023/02/12 06:07:00;;;;;;;4.3;3.3;;;;;;;0.58;79.12109;955.4597;;;;
2023/02/12 06:09:30;;;;;;;4.9;3.4;;;;;;;0.4;79.93262;955.4714;;;;
2023/02/12 06:17:17;;;;;;;5.1;3.5;;;;;;;0.38;79.90723;955.4715;;;;
2023/02/12 06:19:44;;;;;;;6.3;3.4;;;;;;;0.37;79.81836;955.5306;;;;
2023/02/12 06:22:09;;;;;;;6;4;;;;;;;0.43;79.34863;955.5095;;;;
2023/02/12 06:24:39;;;;;;;4.7;3.5;;;;;;;0.44;79.15137;955.5331;;;;
2023/02/12 06:27:04;;;;;;;4.9;3.4;;;;;;;0.53;78.50879;955.6227;;;;
2023/02/12 06:29:32;;;;;;;7.3;4.1;;;;;;;0.54;78.1084;955.5964;;;;
2023/02/12 06:31:57;;;;;;;6;4.1;;;;;;;0.49;78.04297;955.6396;;;;
2023/02/12 06:34:24;;;;;;;5.9;4.1;;;;;;;0.49;77.76563;955.4874;;;;
2023/02/12 06:36:49;;;;;;;4.3;3.2;;;;;;;0.29;77.75195;955.568;;;;
2023/02/12 06:39:18;;;;;;;4;3.1;;;;;;;0.22;78.19531;955.6022;;;;
2023/02/12 06:41:44;;;;;;;3.9;3;;;;;;;0.26;78.3584;955.5908;;;;
2023/02/12 06:44:13;;;;;;;6.1;4.4;;;;;;;0.33;78.67285;955.6113;;;;
2023/02/12 06:46:38;;;;;;;6.4;3.7;;;;;;;0.22;79.85449;955.6097;;;;
2023/02/12 06:49:03;;;;;;;6.7;4.1;;;;;;;0.25;79.92578;955.5853;;;;
2023/02/12 06:51:35;;;;;;;4.9;3.4;;;;;;;-0.21;82.39258;955.5592;;;;
2023/02/12 06:54:18;;;;;;;5.9;3.9;;;;;;;-0.01;82.13965;955.5424;;;;
2023/02/12 06:56:49;;;;;;;5.8;4.6;;;;;;;0.12;81.67383;955.5425;;;;
2023/02/12 06:59:18;;;;;;;6.4;4.3;;;;;;;0.24;80.91797;955.5432;;;;
2023/02/12 07:01:44;;;;;;;6.3;4.6;;;;;;;0.06;81.84375;955.5602;;;;
2023/02/12 07:04:12;;;;;;;8;6;;;;;;;-0.17;84.20313;955.5287;;;;
2023/02/12 07:06:37;;;;;;;9.1;5.7;;;;;;;0.33;82.89746;955.5228;;;;
2023/02/12 07:09:06;;;;;;;5.8;4.7;;;;;;;0.95;79.91602;955.4977;;;;
2023/02/12 07:14:30;;;;;;;6.6;4;;;;;;;2.36;71.93652;955.4706;;;;
2023/02/12 07:17:02;;;;;;;5.7;3.4;;;;;;;3.02;70.06348;955.4963;;;;
2023/02/12 07:19:26;;;;;;;5.9;4;;;;;;;3.7;66.75;955.5187;;;;
2023/02/12 07:21:54;;;;;;;6.1;3.9;;;;;;;4.16;64.7959;955.4844;;;;
2023/02/12 07:24:20;;;;;;;5.1;4;;;;;;;4.73;62.67383;955.481;;;;
2023/02/12 07:26:47;;;;;;;4.8;3.5;;;;;;;4.87;60.79199;955.4883;;;;
2023/02/12 07:29:12;;;;;;;6.4;4.3;;;;;;;5.37;59.41699;955.4389;;;;
2023/02/12 07:31:39;;;;;;;6;3.9;;;;;;;5.46;58.15527;955.4753;;;;
2023/02/12 07:34:04;;;;;;;4.2;3.7;;;;;;;6.14;56.38379;955.476;;;;
2023/02/12 07:36:33;;;;;;;5.6;3.9;;;;;;;6.09;56.25293;955.418;;;;
2023/02/12 07:38:58;;;;;;;6.3;4.2;;;;;;;6.07;56.05762;955.5125;;;;
2023/02/12 07:41:27;;;;;;;3.5;2.8;;;;;;;6.33;55.07324;955.4721;;;;
2023/02/12 07:43:58;;;;;;;4.6;3.6;;;;;;;6.64;54.13965;955.4722;;;;
2023/02/12 07:46:30;;;;;;;3.6;2.9;;;;;;;6.4;53.2168;955.5044;;;;
2023/02/12 07:48:55;;;;;;;4.8;3.1;;;;;;;6.71;52.2373;955.5377;;;;
2023/02/12 07:51:26;;;;;;;3.7;2.8;;;;;;;7.43;50.41992;955.5101;;;;
2023/02/12 07:53:57;;;;;;;3.7;2.5;;;;;;;7.91;48.75195;955.4766;;;;
2023/02/12 07:56:22;;;;;;;3.9;2.6;;;;;;;8.37;47.84961;955.5623;;;;
2023/02/12 07:58:50;;;;;;;4.2;2.8;;;;;;;8.04;50.59473;955.5627;;;;
2023/02/12 08:01:15;;;;;;;4;3.1;;;;;;;8.49;49.55664;955.5524;;;;
2023/02/12 08:03:41;;;;;;;4.4;3.3;;;;;;;8.63;49.1416;955.6384;;;;
2023/02/12 08:06:06;;;;;;;4.1;3;;;;;;;8.22;50.55762;955.6449;;;;
2023/02/12 08:08:31;;;;;;;4.7;3.5;;;;;;;7.71;51.65527;955.6344;;;;
2023/02/12 08:10:56;;;;;;;5.5;3.9;;;;;;;8.37;50.80371;955.5329;;;;
2023/02/12 08:13:21;;;;;;;5.2;3.5;;;;;;;8.37;49.90723;955.5817;;;;
2023/02/12 08:15:46;;;;;;;5;3.4;;;;;;;7.95;51.83203;955.5502;;;;
2023/02/12 08:18:11;;;;;;;3.5;3.1;;;;;;;8.51;49.94629;955.6192;;;;
2023/02/12 08:20:36;;;;;;;3.5;3.1;;;;;;;9.58;47.3125;955.4265;;;;
2023/02/12 08:23:01;;;;;;;4.7;3.3;;;;;;;10.65;43.71777;955.504;;;;
2023/02/12 08:25:30;;;;;;;3;2.6;;;;;;;10.78;43.33203;955.5416;;;;
2023/02/12 08:27:55;;;;;;;4.2;2.5;;;;;;;11.39;41.97461;955.4595;;;;
2023/02/12 08:30:23;;;;;;;3.5;2.6;;;;;;;12.61;39.48828;955.502;;;;
2023/02/12 08:32:48;;;;;;;3.4;2.4;;;;;;;13.21;37.1875;955.408;;;;
2023/02/12 08:35:18;;;;;;;5.7;3.4;;;;;;;14.19;35.49805;955.3752;;;;
2023/02/12 08:37:48;;;;;;;3.4;2.6;;;;;;;13.43;35.9873;955.3331;;;;
2023/02/12 08:40:18;;;;;;;6.8;3.5;;;;;;;13.46;35.48438;955.2772;;;;
2023/02/12 08:42:43;;;;;;;5.9;4;;;;;;;12.59;36.23926;955.286;;;;
2023/02/12 08:45:13;;;;;;;6.1;4.5;;;;;;;10.08;40.99121;955.2258;;;;
2023/02/12 08:47:43;;;;;;;8.4;4.3;;;;;;;9.86;42.54297;955.2449;;;;
2023/02/12 08:50:08;;;;;;;5.9;3.1;;;;;;;9.21;42.71875;955.228;;;;
2023/02/12 08:52:37;;;;;;;5.5;3;;;;;;;8.77;44.54004;955.2051;;;;
2023/02/12 08:55:02;;;;;;;8.8;3.2;;;;;;;7.99;45.58301;955.2288;;;;
2023/02/12 08:57:29;;;;;;;4.4;2.5;;;;;;;7.55;46.14941;955.146;;;;
2023/02/12 08:59:54;;;;;;;10;2.7;;;;;;;6.78;48.81641;955.1239;;;;
2023/02/12 09:02:25;;;;;;;5.6;3.5;;;;;;;6.05;51.04883;955.1422;;;;
2023/02/12 09:04:50;;;;;;;5.9;3.7;;;;;;;5.98;52.08105;955.075;;;;
2023/02/12 09:07:18;;;;;;;9.1;4.5;;;;;;;5.68;53.33008;955.1101;;;;
2023/02/12 09:09:43;;;;;;;5.7;3.3;;;;;;;5.75;53.40723;955.0627;;;;
2023/02/12 09:12:09;;;;;;;8;4.1;;;;;;;5.74;53.37207;955.0422;;;;
2023/02/12 09:14:34;;;;;;;7.2;3.8;;;;;;;5.88;53.35645;955.0298;;;;
2023/02/12 09:16:59;;;;;;;4.3;3.2;;;;;;;5.84;52.40332;955.0055;;;;
2023/02/12 09:19:31;;;;;;;6.4;3.5;;;;;;;5.8;53.44824;954.9817;;;;
2023/02/12 09:21:58;;;;;;;5.7;3;;;;;;;5.83;52.1748;954.9938;;;;
2023/02/12 09:24:23;;;;;;;4.1;2.8;;;;;;;6.05;52.39355;954.9539;;;;
2023/02/12 09:26:53;;;;;;;6.1;3.6;;;;;;;6.47;52.89648;954.9116;;;;
2023/02/12 09:29:22;;;;;;;4.5;2.7;;;;;;;6.8;51.09375;954.894;;;;
2023/02/12 09:31:47;;;;;;;4.5;2.6;;;;;;;7.26;50.10547;954.9008;;;;
2023/02/12 09:34:15;;;;;;;3.8;3;;;;;;;7.71;49.84082;954.9088;;;;
2023/02/12 09:36:40;;;;;;;4;2.9;;;;;;;8.48;47.4082;954.9167;;;;
2023/02/12 09:39:07;;;;;;;4.3;2.5;;;;;;;9.57;44.71387;954.8605;;;;
2023/02/12 09:41:32;;;;;;;3.7;2.3;;;;;;;10.02;42.90234;954.8663;;;;
2023/02/12 09:43:57;;;;;;;2.8;2;;;;;;;10.93;40.19238;954.7805;;;;
2023/02/12 09:46:22;;;;;;;2.3;1.7;;;;;;;11.79;38.67969;954.8907;;;;
2023/02/12 09:48:47;;;;;;;2.7;1.7;;;;;;;11.06;39.81543;954.7908;;;;
2023/02/12 09:51:14;;;;;;;3.2;1.9;;;;;;;12.37;37.80273;954.8126;;;;
2023/02/12 09:53:39;;;;;;;1.9;1.7;;;;;;;13.08;36.07324;954.7288;;;;
2023/02/12 09:56:05;;;;;;;5.4;2.2;;;;;;;13.5;34.14258;954.73;;;;
2023/02/12 09:58:30;;;;;;;3;1.7;;;;;;;13.63;33.69238;954.7198;;;;
2023/02/12 10:00:55;;;;;;;3;1.7;;;;;;;13.61;33.41504;954.7173;;;;
2023/02/12 10:03:25;;;;;;;2.6;1.6;;;;;;;13.72;32.28516;954.6836;;;;
2023/02/12 10:05:50;;;;;;;3.4;1.7;;;;;;;14.21;32.65527;954.6319;;;;
2023/02/12 10:08:15;;;;;;;2.8;1.6;;;;;;;15.18;30.95117;954.5928;;;;
2023/02/12 10:10:40;;;;;;;5.5;2.3;;;;;;;15.56;30.80371;954.5614;;;;
2023/02/12 10:13:09;;;;;;;6.1;1.8;;;;;;;15.33;30.31543;954.6086;;;;
2023/02/12 10:15:38;;;;;;;2.6;1.8;;;;;;;15.29;30.08105;954.563;;;;
2023/02/12 10:18:05;;;;;;;1.9;1.4;;;;;;;14.25;31.85156;954.6033;;;;
2023/02/12 10:20:32;;;;;;;3;1.7;;;;;;;13.41;31.76758;954.6082;;;;
2023/02/12 10:22:59;;;;;;;2.5;1.8;;;;;;;13.31;32.26563;954.5769;;;;
2023/02/12 10:25:30;;;;;;;3.2;1.9;;;;;;;12.51;34.12207;954.5349;;;;
2023/02/12 10:27:58;;;;;;;3.3;1.9;;;;;;;12.14;35.0791;954.5589;;;;
2023/02/12 10:30:24;;;;;;;2.1;1.5;;;;;;;10.99;38.01465;954.5363;;;;
2023/02/12 10:32:50;;;;;;;3.3;1.8;;;;;;;10.79;39.00195;954.4612;;;;
2023/02/12 10:35:18;;;;;;;2.5;1.3;;;;;;;10.83;38.78809;954.4732;;;;
2023/02/12 10:37:43;;;;;;;2.3;1.9;;;;;;;11.52;38.70215;954.3964;;;;
2023/02/12 10:40:11;;;;;;;2.6;2;;;;;;;11.33;38.27344;954.4708;;;;
2023/02/12 10:42:43;;;;;;;4.1;2;;;;;;;11.6;37.98828;954.5011;;;;
2023/02/12 10:45:09;;;;;;;4.1;2.3;;;;;;;11.5;38.33398;954.5442;;;;
2023/02/12 10:47:33;;;;;;;3.4;2.3;;;;;;;11.16;40.27148;954.4816;;;;
2023/02/12 10:49:58;;;;;;;4.8;2.5;;;;;;;11.07;41.39355;954.4531;;;;
2023/02/12 10:52:31;;;;;;;3.5;2.3;;;;;;;10.63;41.98047;954.4701;;;;
2023/02/12 10:55:00;;;;;;;2.9;2;;;;;;;10.45;41.82617;954.4675;;;;
2023/02/12 10:57:28;;;;;;;3.6;2.1;;;;;;;10.69;39.84961;954.4348;;;;
2023/02/12 10:59:56;;;;;;;3.2;1.9;;;;;;;10.54;39.3457;954.4445;;;;
2023/02/12 11:02:27;;;;;;;2.4;1.9;;;;;;;10.82;38.41016;954.3806;;;;
2023/02/12 11:04:59;;;;;;;2.9;2.2;;;;;;;10.91;38.7168;954.3987;;;;
2023/02/12 11:07:25;;;;;;;4.5;2.4;;;;;;;11.44;38.15723;954.3589;;;;
2023/02/12 11:09:55;;;;;;;2.2;1.6;;;;;;;11.57;38.18066;954.3488;;;;
2023/02/12 11:12:20;;;;;;;2.6;1.8;;;;;;;11.7;37.88281;954.3459;;;;
2023/02/12 11:14:45;;;;;;;2;1.6;;;;;;;11.44;38.07715;954.2784;;;;
2023/02/12 11:17:11;;;;;;;2;1.8;;;;;;;12.23;37.16113;954.2575;;;;
2023/02/12 11:19:36;;;;;;;2.5;1.8;;;;;;;12.43;36.66211;954.2572;;;;
2023/02/12 11:22:03;;;;;;;2.4;1.9;;;;;;;13.05;36.16309;954.1953;;;;
2023/02/12 11:24:35;;;;;;;3.9;2.2;;;;;;;13.02;35.77051;954.1794;;;;
2023/02/12 11:27:04;;;;;;;3.4;2.3;;;;;;;13.4;34.83496;954.1694;;;;
2023/02/12 11:29:32;;;;;;;3.8;2.5;;;;;;;13.25;35.62793;954.1714;;;;
2023/02/12 11:31:54;;;;;;;3.9;2.3;;;;;;;13.1;35.79883;954.1606;;;;
2023/02/12 11:34:20;;;;;;;3.8;2.8;;;;;;;13.78;33.99219;954.0572;;;;
2023/02/12 11:36:45;;;;;;;4.4;3.1;;;;;;;14.09;33.52051;954.0733;;;;
2023/02/12 11:39:16;;;;;;;2.9;2.6;;;;;;;14.51;32.76953;954.0187;;;;
2023/02/12 11:41:41;;;;;;;4.6;3;;;;;;;15.74;30.40039;954.0379;;;;
2023/02/12 11:44:06;;;;;;;3.9;2.5;;;;;;;16.37;29.50781;954.0323;;;;
2023/02/12 11:46:32;;;;;;;3.8;2.4;;;;;;;16.38;29.72852;953.9559;;;;
2023/02/12 11:48:59;;;;;;;3.1;2.5;;;;;;;16.23;29.97266;953.9846;;;;
2023/02/12 11:51:25;;;;;;;4.3;2.8;;;;;;;16.95;28.9668;953.9828;;;;
2023/02/12 11:53:50;;;;;;;3.4;2.6;;;;;;;17.38;28.38086;953.9182;;;;
2023/02/12 11:56:15;;;;;;;4.1;3.1;;;;;;;17.46;28.76855;953.9135;;;;
2023/02/12 11:58:41;;;;;;;3.6;2.8;;;;;;;17.65;28.41016;953.8338;;;;
2023/02/12 12:01:08;;;;;;;3.1;2.6;;;;;;;18.46;27.35742;953.8883;;;;
2023/02/12 12:03:33;;;;;;;3.3;2.8;;;;;;;19.17;26.52832;953.834;;;;
2023/02/12 12:05:59;;;;;;;4.2;2.8;;;;;;;19.1;27.79297;953.9188;;;;
2023/02/12 12:08:26;;;;;;;3.9;3;;;;;;;21.32;24.24707;953.883;;;;
2023/02/12 12:10:52;;;;;;;5;2.9;;;;;;;21.74;23.83691;953.7852;;;;
2023/02/12 12:13:17;;;;;;;4.1;2.8;;;;;;;21.21;24.4043;953.7915;;;;
2023/02/12 12:20:34;;;;;;;4.9;3.1;;;;;;;22.29;23.52637;953.7444;;;;
2023/02/12 12:23:03;;;;;;;4.3;3.4;;;;;;;24.24;21.3916;953.7514;;;;
2023/02/12 12:25:28;;;;;;;5.5;4.1;;;;;;;25.26;20.27051;953.7028;;;;
2023/02/12 12:28:09;;;;;;;5.9;4.2;;;;;;;26.71;18.90332;953.6965;;;;
2023/02/12 12:30:26;;;;;;;6.8;4.4;;;;;;;27.43;17.90234;953.6705;;;;
2023/02/12 12:32:51;;;;;;;5.5;4;;;;;;;22.77;22.38867;953.6141;;;;
2023/02/12 12:35:20;;;;;;;8.3;5.1;;;;;;;21.35;23.92188;953.5876;;;;
2023/02/12 12:37:45;;;;;;;6.9;4.9;;;;;;;21.33;24.17676;953.6178;;;;
2023/02/12 12:40:10;;;;;;;6.3;4.9;;;;;;;21.02;24.85059;953.5753;;;;
2023/02/12 12:42:39;;;;;;;7.6;5.2;;;;;;;22.88;22.89941;953.5248;;;;
2023/02/12 12:45:07;;;;;;;7.1;5;;;;;;;24.01;21.85059;953.5605;;;;
2023/02/12 12:47:35;;;;;;;7.8;5.5;;;;;;;23.5;22.73145;953.4846;;;;
2023/02/12 12:50:05;;;;;;;7.8;5.4;;;;;;;21.62;24.18066;953.5225;;;;
2023/02/12 12:52:31;;;;;;;11.8;6.8;;;;;;;21.1;25.83789;953.5062;;;;
2023/02/12 12:54:56;;;;;;;8.7;6.6;;;;;;;20.02;26.56836;953.4619;;;;
2023/02/12 12:57:21;;;;;;;6.5;5;;;;;;;19.74;26.83105;953.4319;;;;
2023/02/12 12:59:48;;;;;;;7;5.1;;;;;;;20.62;25.45898;953.4639;;;;
2023/02/12 13:02:13;;;;;;;6.8;4.7;;;;;;;21.15;24.96289;953.4176;;;;
2023/02/12 13:04:38;;;;;;;6.2;4.5;;;;;;;21.42;24.5332;953.3521;;;;
2023/02/12 13:07:03;;;;;;;8.5;5.1;;;;;;;20.43;25.62305;953.4014;;;;
2023/02/12 13:09:30;;;;;;;7.8;5.3;;;;;;;20.7;24.96094;953.4303;;;;
2023/02/12 13:11:55;;;;;;;7.1;4.7;;;;;;;20.49;25.40527;953.402;;;;
2023/02/12 13:14:21;;;;;;;7.8;5.4;;;;;;;21.37;25.4209;953.3735;;;;
2023/02/12 13:16:46;;;;;;;7;5;;;;;;;21.5;25.36914;953.3719;;;;
2023/02/12 13:19:11;;;;;;;7.8;5.8;;;;;;;21.45;24.67578;953.3651;;;;
2023/02/12 13:21:36;;;;;;;7.6;5.5;;;;;;;21.82;24.42676;953.3506;;;;
2023/02/12 13:24:01;;;;;;;6.9;5.3;;;;;;;22.14;24.33887;953.3627;;;;
2023/02/12 13:26:29;;;;;;;7.3;5.2;;;;;;;21.74;25.25391;953.3846;;;;
2023/02/12 13:28:52;;;;;;;8.4;5.1;;;;;;;21.68;25.22656;953.2863;;;;
2023/02/12 13:31:20;;;;;;;7.4;5.5;;;;;;;21.8;24.6709;953.3557;;;;
2023/02/12 13:33:48;;;;;;;6.5;5.3;;;;;;;21.65;25.31934;953.3482;;;;
2023/02/12 13:36:13;;;;;;;6.6;5.3;;;;;;;21.35;25.36035;953.3794;;;;
2023/02/12 13:38:38;;;;;;;7;5.2;;;;;;;20.85;26.04492;953.3544;;;;
2023/02/12 13:41:03;;;;;;;6.8;5.2;;;;;;;21.33;25.51074;953.305;;;;
2023/02/12 13:43:35;;;;;;;7.5;5.6;;;;;;;21.39;25.43262;953.251;;;;
2023/02/12 13:46:01;;;;;;;7.6;5.8;;;;;;;21.81;24.98828;953.3215;;;;
2023/02/12 13:48:32;;;;;;;7.2;5.4;;;;;;;20.88;26.24512;953.317;;;;
2023/02/12 13:50:58;;;;;;;7.3;5.7;;;;;;;21.67;26;953.3195;;;;
2023/02/12 13:53:25;;;;;;;7.3;5.4;;;;;;;22.22;24.78809;953.2831;;;;
2023/02/12 13:55:50;;;;;;;7.6;5.5;;;;;;;22.04;25.04785;953.2857;;;;
2023/02/12 13:58:17;;;;;;;7.6;5.4;;;;;;;21.05;26.33789;953.3373;;;;
2023/02/12 14:00:42;;;;;;;7.3;5;;;;;;;22.47;24.45117;953.3245;;;;
2023/02/12 14:03:08;;;;;;;7.1;5.1;;;;;;;22.31;25.26367;953.353;;;;
2023/02/12 14:05:35;;;;;;;6.4;5;;;;;;;23.8;23.44141;953.4182;;;;
2023/02/12 14:08:00;;;;;;;7.9;5.6;;;;;;;24.76;22.1709;953.2172;;;;
2023/02/12 14:10:27;;;;;;;8.4;6;;;;;;;25.24;21.99414;953.3372;;;;
2023/02/12 14:12:54;;;;;;;6;5.1;;;;;;;25.84;21.04199;953.2581;;;;
2023/02/12 14:15:25;;;;;;;6.4;5.2;;;;;;;24.8;22.20801;953.2285;;;;
2023/02/12 14:17:51;;;;;;;6.8;5.2;;;;;;;23.62;23.67871;953.325;;;;
2023/02/12 14:20:18;;;;;;;7.3;5.3;;;;;;;24.8;22.57422;953.2555;;;;
2023/02/12 14:22:48;;;;;;;6.9;5.4;;;;;;;25.3;22.22168;953.2932;;;;
2023/02/12 14:25:17;;;;;;;7.4;5.2;;;;;;;24.32;22.96191;953.3064;;;;
2023/02/12 14:27:44;;;;;;;7;5.5;;;;;;;23.81;23.7832;953.3237;;;;
2023/02/12 14:30:14;;;;;;;7.3;5.5;;;;;;;22.84;24.72949;953.2125;;;;
2023/02/12 14:32:45;;;;;;;8.6;5.8;;;;;;;22.95;24.60645;953.1564;;;;
2023/02/12 14:35:19;;;;;;;7;5.3;;;;;;;23.29;24.63672;953.2324;;;;
2023/02/12 14:37:44;;;;;;;6.6;4.8;;;;;;;24.24;23.47656;953.1555;;;;
2023/02/12 14:40:15;;;;;;;8.1;6.1;;;;;;;23.56;23.81641;953.1647;;;;
2023/02/12 14:42:45;;;;;;;8.3;5.6;;;;;;;23.69;24.17676;953.1379;;;;
2023/02/12 14:45:18;;;;;;;7.6;5.3;;;;;;;23.25;24.92871;953.1509;;;;
2023/02/12 14:47:44;;;;;;;7.1;5.1;;;;;;;23.97;24.33301;953.1478;;;;
2023/02/12 14:50:11;;;;;;;7.1;5.1;;;;;;;24.51;23.77344;953.1447;;;;
2023/02/12 14:52:36;;;;;;;7.9;5.3;;;;;;;23.12;25.17969;953.1291;;;;
2023/02/12 14:55:01;;;;;;;6.5;4.9;;;;;;;22.56;25.94629;953.1406;;;;
2023/02/12 14:57:26;;;;;;;6.9;5.2;;;;;;;22.78;25.87695;953.207;;;;
2023/02/12 14:59:51;;;;;;;7.2;5.2;;;;;;;22.46;26.28027;953.1445;;;;
2023/02/12 15:02:17;;;;;;;7;5.2;;;;;;;22.68;26.04688;953.1979;;;;
2023/02/12 15:04:42;;;;;;;7.4;5.6;;;;;;;22.54;26.27344;953.1775;;;;